Time;durP1;ratioP1;P1;durP2;ratioP2;P2;SDS_P1;SDS_P2;PMS_P1;PMS_P2;Temp;Humidity;BMP_temperature;BMP_pressure;BME280_temperature;BME280_humidity;BME280_pressure;Samples;Min_cycle;Max_cycle;Signal;HPM_P1;HPM_P2
2022/03/19 00:04:34;;;;;;;72.82;41.03;;;;;;;3.83;85.59;102750.22;10439775;28;20049;-79
2022/03/19 00:09:35;;;;;;;73.07;40.55;;;;;;;3.74;85.50;102747.25;10409586;28;20433;-79
2022/03/19 00:14:37;;;;;;;65.40;37.78;;;;;;;3.58;83.75;102757.84;10427742;28;20532;-78
2022/03/19 00:19:39;;;;;;;63.83;38.17;;;;;;;3.31;84.86;102762.81;10430812;28;20038;-79
2022/03/19 00:24:41;;;;;;;69.10;39.75;;;;;;;3.51;84.54;102762.81;10425848;28;20045;-78
2022/03/19 00:29:42;;;;;;;57.17;37.92;;;;;;;3.33;84.21;102762.06;10421118;28;20069;-79
2022/03/19 00:34:44;;;;;;;68.03;38.95;;;;;;;3.32;86.59;102754.19;10439728;28;20045;-80
2022/03/19 00:39:45;;;;;;;70.20;40.35;;;;;;;3.29;86.46;102758.44;10454916;28;20072;-79
2022/03/19 00:44:47;;;;;;;76.70;41.63;;;;;;;3.87;86.33;102748.63;10448325;28;20049;-81
2022/03/19 00:49:49;;;;;;;70.15;40.90;;;;;;;4.05;86.89;102750.22;10450177;28;20041;-79
2022/03/19 00:54:52;;;;;;;72.07;40.25;;;;;;;4.18;86.18;102746.38;10454734;28;20034;-80
2022/03/19 00:59:53;;;;;;;70.97;37.88;;;;;;;4.34;85.05;102740.03;10434856;28;20049;-80
2022/03/19 01:04:55;;;;;;;55.88;35.05;;;;;;;4.10;85.24;102742.56;10432319;28;20045;-80
2022/03/19 01:09:57;;;;;;;59.85;37.55;;;;;;;4.13;86.22;102734.00;10404072;28;20038;-80
2022/03/19 01:14:58;;;;;;;64.78;36.60;;;;;;;3.78;85.68;102743.94;10433850;28;20100;-79
2022/03/19 01:20:02;;;;;;;62.33;37.05;;;;;;;3.76;87.02;102750.78;10414069;28;20080;-80
2022/03/19 01:25:05;;;;;;;69.43;37.88;;;;;;;3.82;87.34;102742.34;10408334;28;20084;-80
2022/03/19 01:30:08;;;;;;;66.05;36.58;;;;;;;3.86;86.97;102742.53;10397553;28;20042;-79
2022/03/19 01:35:10;;;;;;;65.93;35.55;;;;;;;3.87;86.98;102735.63;10430978;28;20561;-81
2022/03/19 01:40:13;;;;;;;57.85;35.42;;;;;;;3.81;87.36;102733.66;10413372;28;20091;-80
2022/03/19 01:45:21;;;;;;;64.82;35.63;;;;;;;4.05;86.50;102726.78;10430611;28;20045;-79
2022/03/19 01:50:24;;;;;;;66.07;36.35;;;;;;;3.95;86.22;102729.88;10430029;28;20487;-79
2022/03/19 01:55:27;;;;;;;64.70;35.35;;;;;;;3.84;86.51;102732.88;10411627;28;20049;-80
2022/03/19 02:00:29;;;;;;;56.28;34.40;;;;;;;3.79;87.20;102730.09;10443815;28;20041;-80
2022/03/19 02:05:30;;;;;;;59.08;34.85;;;;;;;3.95;87.05;102721.19;10441281;28;20484;-79
2022/03/19 02:10:34;;;;;;;58.95;33.85;;;;;;;3.91;86.24;102717.56;10429332;28;20045;-80
2022/03/19 02:15:35;;;;;;;60.25;32.15;;;;;;;4.03;84.91;102710.25;10411035;28;20041;-79
2022/03/19 02:20:39;;;;;;;49.25;30.45;;;;;;;4.01;84.15;102711.88;10427274;28;20119;-79
2022/03/19 02:25:41;;;;;;;44.30;29.05;;;;;;;3.95;83.97;102711.66;10394160;28;20045;-79
2022/03/19 02:30:43;;;;;;;47.08;29.23;;;;;;;3.98;83.90;102706.56;10430400;28;20103;-79
2022/03/19 02:35:46;;;;;;;53.55;28.38;;;;;;;3.90;83.94;102707.13;10413513;28;20080;-79
2022/03/19 02:40:48;;;;;;;40.35;27.20;;;;;;;3.87;84.69;102710.47;10425097;28;20072;-80
2022/03/19 02:45:49;;;;;;;40.40;26.48;;;;;;;3.98;83.63;102706.56;10426784;28;20049;-79
2022/03/19 02:50:51;;;;;;;40.60;25.15;;;;;;;4.05;82.66;102710.28;10430536;28;20069;-78
2022/03/19 02:55:54;;;;;;;37.33;24.95;;;;;;;3.75;84.48;102710.00;10427364;28;20045;-78
2022/03/19 03:00:56;;;;;;;37.78;24.45;;;;;;;3.97;83.29;102706.50;10429197;28;20087;-78
2022/03/19 03:05:57;;;;;;;36.15;22.88;;;;;;;3.99;82.41;102704.88;10429068;28;20053;-78
2022/03/19 03:10:59;;;;;;;37.72;22.75;;;;;;;3.89;82.50;102695.78;10425961;28;20069;-78
2022/03/19 03:16:01;;;;;;;24.83;21.15;;;;;;;3.99;82.08;102687.53;10425715;28;20052;-78
2022/03/19 03:21:02;;;;;;;32.95;22.13;;;;;;;3.95;81.97;102693.44;10425044;28;20045;-78
2022/03/19 03:26:04;;;;;;;26.60;21.48;;;;;;;3.89;82.66;102677.56;10424175;28;20146;-78
2022/03/19 03:31:06;;;;;;;34.15;23.05;;;;;;;3.69;83.81;102684.63;10424118;28;20096;-78
2022/03/19 03:36:08;;;;;;;26.13;21.13;;;;;;;4.09;82.02;102670.53;10423906;28;20045;-78
2022/03/19 03:41:09;;;;;;;35.95;21.70;;;;;;;4.18;80.69;102670.88;10414314;28;20042;-78
2022/03/19 03:46:11;;;;;;;30.27;20.58;;;;;;;3.80;82.45;102664.22;10444878;28;20046;-78
2022/03/19 03:51:14;;;;;;;30.25;20.90;;;;;;;3.92;81.65;102666.41;10431886;28;20127;-80
2022/03/19 03:56:15;;;;;;;23.77;19.77;;;;;;;3.76;82.02;102655.44;10424135;28;20103;-79
2022/03/19 04:01:17;;;;;;;28.08;18.35;;;;;;;3.60;82.48;102650.47;10421154;28;20099;-77
2022/03/19 04:06:19;;;;;;;25.50;17.77;;;;;;;3.35;82.85;102647.72;10419575;28;20064;-79
2022/03/19 04:11:21;;;;;;;23.30;18.08;;;;;;;3.45;82.26;102644.66;10421414;28;20041;-77
2022/03/19 04:16:22;;;;;;;24.38;17.85;;;;;;;3.19;84.62;102674.84;10432979;28;20045;-78
2022/03/19 04:21:24;;;;;;;22.95;18.20;;;;;;;3.24;84.42;102665.50;10424803;28;20050;-78
2022/03/19 04:26:26;;;;;;;27.00;18.30;;;;;;;3.58;83.47;102664.22;10422734;28;20076;-78
2022/03/19 04:31:27;;;;;;;28.75;18.17;;;;;;;3.71;83.11;102661.28;10436468;28;20107;-78
2022/03/19 04:36:30;;;;;;;28.15;17.42;;;;;;;3.65;82.28;102661.94;10431036;28;20128;-78
2022/03/19 04:41:33;;;;;;;22.27;16.80;;;;;;;3.76;81.84;102663.25;10418959;28;20042;-79
2022/03/19 04:46:35;;;;;;;21.42;16.77;;;;;;;3.65;82.51;102654.13;10435483;28;20056;-79
2022/03/19 04:51:38;;;;;;;24.08;16.95;;;;;;;3.50;83.58;102651.84;10437464;28;20045;-79
2022/03/19 04:56:39;;;;;;;22.85;15.93;;;;;;;3.43;83.11;102657.63;10420932;28;20049;-80
2022/03/19 05:01:41;;;;;;;19.52;15.57;;;;;;;3.21;84.70;102662.78;10424574;28;20046;-80
2022/03/19 05:06:43;;;;;;;25.23;17.00;;;;;;;3.16;85.12;102664.31;10427283;28;20503;-80
2022/03/19 05:11:45;;;;;;;23.38;16.38;;;;;;;3.02;85.64;102656.84;10428134;28;20049;-79
2022/03/19 05:16:46;;;;;;;23.35;15.73;;;;;;;2.96;85.61;102663.47;10427938;28;20049;-81
2022/03/19 05:21:47;;;;;;;17.73;14.40;;;;;;;2.95;85.85;102667.78;10438308;28;20049;-80
2022/03/19 05:26:49;;;;;;;26.58;15.40;;;;;;;3.06;85.03;102663.06;10472600;28;20041;-80
2022/03/19 05:31:50;;;;;;;20.30;16.27;;;;;;;3.04;85.60;102660.38;10473171;28;20051;-81
2022/03/19 05:36:53;;;;;;;25.63;15.77;;;;;;;3.20;85.04;102653.22;10473019;28;20041;-80
2022/03/19 05:41:54;;;;;;;19.80;14.32;;;;;;;3.08;85.06;102663.09;10471810;28;20079;-80
2022/03/19 05:46:58;;;;;;;21.67;12.63;;;;;;;3.12;85.10;102667.63;10439942;28;20045;-80
2022/03/19 05:51:59;;;;;;;14.23;11.35;;;;;;;3.28;83.82;102672.63;10437832;28;20045;-80
2022/03/19 05:57:01;;;;;;;18.48;11.68;;;;;;;3.14;84.64;102671.16;10435190;28;20060;-80
2022/03/19 06:02:05;;;;;;;17.90;13.52;;;;;;;3.07;84.74;102679.53;10434785;28;20107;-79
2022/03/19 06:07:07;;;;;;;21.95;11.77;;;;;;;3.06;84.91;102678.66;10434489;28;20041;-79
2022/03/19 06:12:09;;;;;;;22.20;11.25;;;;;;;3.17;84.17;102672.16;10435150;28;20060;-81
2022/03/19 06:17:11;;;;;;;14.90;11.00;;;;;;;3.33;83.10;102667.59;10434906;28;20053;-80
2022/03/19 06:22:12;;;;;;;14.43;10.05;;;;;;;3.19;83.88;102659.25;10405219;28;20045;-79
2022/03/19 06:27:14;;;;;;;20.00;10.30;;;;;;;3.26;84.46;102662.13;10419618;28;20095;-79
2022/03/19 06:32:20;;;;;;;12.02;9.13;;;;;;;3.31;83.67;102664.03;10435852;28;20046;-80
2022/03/19 06:37:22;;;;;;;20.88;10.73;;;;;;;2.99;84.90;102671.41;10435166;28;20067;-81
2022/03/19 06:42:25;;;;;;;19.48;9.98;;;;;;;3.12;84.35;102670.22;10417990;28;20057;-82
2022/03/19 06:47:26;;;;;;;22.17;9.40;;;;;;;3.01;85.01;102661.97;10434095;28;20045;-81
2022/03/19 06:52:29;;;;;;;20.38;10.40;;;;;;;3.08;84.57;102660.50;10434983;28;20061;-80
2022/03/19 06:57:30;;;;;;;21.77;9.90;;;;;;;3.00;85.01;102658.47;10433449;28;20495;-77
2022/03/19 07:02:32;;;;;;;25.58;11.25;;;;;;;2.95;85.24;102654.81;10424715;28;20056;-80
2022/03/19 07:07:34;;;;;;;21.33;11.60;;;;;;;3.02;84.76;102656.84;10428182;28;20154;-78
2022/03/19 07:12:45;;;;;;;26.92;13.38;;;;;;;3.11;84.67;102653.72;10431969;28;20037;-81
2022/03/19 07:17:50;;;;;;;24.30;13.55;;;;;;;3.08;84.95;102653.59;10433798;28;20605;-81
2022/03/19 07:22:55;;;;;;;18.60;14.57;;;;;;;3.19;84.70;102659.25;10416130;28;20045;-79
2022/03/19 07:27:59;;;;;;;31.30;14.07;;;;;;;3.16;84.41;102652.19;10436504;28;20045;-80
2022/03/19 07:33:02;;;;;;;23.30;12.15;;;;;;;3.29;83.84;102656.19;10400716;28;20136;-79
2022/03/19 07:38:05;;;;;;;25.73;12.13;;;;;;;3.32;83.44;102653.72;10416339;28;20046;-81
2022/03/19 07:43:08;;;;;;;22.05;12.05;;;;;;;3.37;82.80;102652.19;10433753;28;20081;-78
2022/03/19 07:48:11;;;;;;;26.33;12.68;;;;;;;3.36;83.27;102652.09;10415907;28;20049;-77
2022/03/19 07:53:27;;;;;;;27.77;14.60;;;;;;;3.25;83.82;102643.88;10431945;28;20053;-77
2022/03/19 07:58:29;;;;;;;28.25;14.57;;;;;;;3.53;83.81;102633.72;10428419;28;20042;-79
2022/03/19 08:03:30;;;;;;;35.15;14.95;;;;;;;3.80;81.21;102641.69;10438616;28;20045;-76
2022/03/19 08:08:34;;;;;;;25.85;14.95;;;;;;;4.01;81.27;102630.31;10434966;28;20034;-78
2022/03/19 08:13:38;;;;;;;29.48;14.80;;;;;;;4.20;78.75;102617.13;10426728;28;20392;-78
2022/03/19 08:18:39;;;;;;;33.65;16.40;;;;;;;3.94;80.13;102617.91;10409879;28;20041;-79
2022/03/19 08:23:41;;;;;;;28.70;17.08;;;;;;;4.14;79.89;102611.72;10396230;28;20049;-79
2022/03/19 08:28:42;;;;;;;30.17;17.05;;;;;;;4.53;77.86;102607.00;10414032;28;20049;-81
2022/03/19 08:33:44;;;;;;;27.50;17.75;;;;;;;4.70;76.40;102601.50;10431591;28;20041;-79
2022/03/19 08:44:05;;;;;;;24.52;18.42;;;;;;;4.49;76.28;102602.53;10423681;28;20075;-79
2022/03/19 08:49:07;;;;;;;27.35;19.92;;;;;;;4.55;77.27;102584.50;10431170;28;20034;-78
2022/03/19 08:54:19;;;;;;;37.50;20.17;;;;;;;4.95;75.82;102588.41;10433260;28;20049;-77
2022/03/19 08:59:21;;;;;;;40.17;22.27;;;;;;;4.92;76.10;102590.94;10429438;28;20042;-77
2022/03/19 09:04:22;;;;;;;28.00;19.20;;;;;;;5.31;74.12;102595.59;10430534;28;20053;-77
2022/03/19 09:09:24;;;;;;;35.78;22.55;;;;;;;5.34;74.02;102595.72;10426999;28;20044;-78
2022/03/19 09:14:27;;;;;;;30.88;21.70;;;;;;;4.94;73.94;102585.75;10433206;28;20050;-77
2022/03/19 09:19:28;;;;;;;39.60;20.92;;;;;;;4.74;74.90;102591.22;10426518;28;20041;-78
2022/03/19 09:24:30;;;;;;;26.48;20.50;;;;;;;5.02;74.42;102590.38;10418992;28;20056;-76
2022/03/19 09:29:32;;;;;;;35.15;21.65;;;;;;;4.95;74.00;102588.41;10437236;28;20049;-77
2022/03/19 09:34:33;;;;;;;36.28;21.70;;;;;;;4.99;74.38;102582.44;10433732;28;20115;-76
2022/03/19 09:39:35;;;;;;;31.17;19.85;;;;;;;4.88;74.98;102576.03;10437951;28;20037;-76
2022/03/19 09:44:37;;;;;;;32.92;21.90;;;;;;;5.04;74.72;102580.00;10439367;28;20042;-78
2022/03/19 09:49:39;;;;;;;26.80;20.42;;;;;;;4.95;74.36;102577.97;10435926;28;20045;-76
2022/03/19 09:54:41;;;;;;;26.70;19.23;;;;;;;4.79;75.59;102581.81;10432284;28;20488;-77
2022/03/19 09:59:45;;;;;;;22.92;18.23;;;;;;;4.78;75.77;102576.53;10441323;28;20507;-78
2022/03/19 10:04:51;;;;;;;25.00;20.58;;;;;;;4.53;79.67;102572.25;10418453;28;20055;-76
2022/03/19 10:09:58;;;;;;;26.20;19.50;;;;;;;4.57;80.80;102576.75;10449861;28;20045;-76
2022/03/19 10:15:00;;;;;;;24.27;17.75;;;;;;;4.69;80.62;102571.03;10436697;28;20095;-77
2022/03/19 10:20:07;;;;;;;24.65;16.85;;;;;;;4.60;80.57;102566.41;10432658;28;20084;-76
2022/03/19 10:25:10;;;;;;;;;;;;;;;4.70;80.16;102563.28;10436221;28;20100;-75
2022/03/19 10:30:19;;;;;;;15.60;14.05;;;;;;;4.80;79.38;102554.03;10431625;28;20274;-77
2022/03/19 10:35:33;;;;;;;15.70;13.32;;;;;;;5.14;78.12;102544.69;10427763;28;20038;-77
2022/03/19 10:40:37;;;;;;;14.77;13.13;;;;;;;5.66;75.65;102554.91;10437609;28;20076;-78
2022/03/19 10:45:47;;;;;;;13.98;12.60;;;;;;;5.36;74.79;102541.88;10441577;28;20048;-79
2022/03/19 10:50:50;;;;;;;12.23;11.23;;;;;;;5.39;75.11;102539.34;10448015;28;20129;-80
2022/03/19 10:55:53;;;;;;;12.77;11.65;;;;;;;5.75;72.96;102530.81;10447150;28;20046;-78
2022/03/19 11:00:59;;;;;;;12.40;11.07;;;;;;;5.95;72.15;102521.84;10443737;28;20076;-80
2022/03/19 11:06:06;;;;;;;13.73;12.32;;;;;;;6.35;70.74;102511.56;10450373;28;20060;-83
2022/03/19 11:11:13;;;;;;;12.23;11.03;;;;;;;7.08;65.72;102501.09;10438963;28;20029;-81
2022/03/19 11:16:17;;;;;;;12.43;11.32;;;;;;;7.31;62.92;102485.03;10443548;28;20052;-82
2022/03/19 11:21:19;;;;;;;13.07;11.48;;;;;;;7.92;59.71;102474.84;10440934;28;20126;-81
2022/03/19 11:26:28;;;;;;;15.10;11.57;;;;;;;8.50;58.69;102449.63;10434664;28;20045;-81
2022/03/19 11:31:30;;;;;;;13.77;12.32;;;;;;;8.32;58.92;102450.19;10433668;28;20095;-82
2022/03/19 11:36:56;;;;;;;13.40;12.00;;;;;;;8.77;57.02;102441.31;10440648;28;20033;-82
2022/03/19 11:41:59;;;;;;;15.77;12.77;;;;;;;8.90;55.01;102453.75;10439063;28;20049;-81
2022/03/19 11:47:03;;;;;;;16.25;12.77;;;;;;;8.76;53.55;102444.78;10442156;28;20037;-80
2022/03/19 11:52:06;;;;;;;13.40;12.10;;;;;;;8.78;54.29;102430.84;10449437;28;20080;-81
2022/03/19 11:57:07;;;;;;;13.43;12.23;;;;;;;9.19;52.01;102430.50;10440326;28;20045;-80
2022/03/19 12:02:14;;;;;;;12.45;11.45;;;;;;;9.18;46.20;102425.25;10438197;28;20045;-82
2022/03/19 12:07:39;;;;;;;12.87;11.87;;;;;;;8.72;42.58;102411.50;10439687;28;20041;-80
2022/03/19 12:12:42;;;;;;;15.70;12.63;;;;;;;8.42;41.63;102411.97;10441438;28;20114;-81
2022/03/19 12:17:43;;;;;;;14.90;13.43;;;;;;;8.27;43.75;102402.09;10446394;28;20050;-82
2022/03/19 12:22:48;;;;;;;14.70;13.20;;;;;;;8.42;43.27;102406.72;10445578;28;20049;-81
2022/03/19 12:27:52;;;;;;;14.60;13.30;;;;;;;8.52;43.70;102388.53;10450005;28;20076;-81
2022/03/19 12:32:57;;;;;;;15.70;14.35;;;;;;;8.25;45.10;102383.72;10443192;28;20071;-81
2022/03/19 12:37:58;;;;;;;15.35;13.85;;;;;;;8.60;44.51;102375.53;10437943;28;20068;-82
2022/03/19 12:43:00;;;;;;;14.43;13.20;;;;;;;8.53;47.55;102374.56;10456918;28;20050;-80
2022/03/19 12:48:10;;;;;;;15.88;14.00;;;;;;;8.30;47.92;102368.94;10462323;28;20033;-81
2022/03/19 12:53:12;;;;;;;15.35;13.05;;;;;;;8.17;42.08;102361.75;10461931;28;20051;-78
2022/03/19 12:58:13;;;;;;;12.85;11.48;;;;;;;8.20;39.92;102369.69;10458967;28;20042;-81
2022/03/19 13:03:28;;;;;;;14.00;12.70;;;;;;;7.98;40.76;102372.81;10462558;28;20045;-82
2022/03/19 13:08:43;;;;;;;14.18;12.93;;;;;;;8.03;38.42;102355.44;10458212;28;20049;-80
2022/03/19 13:13:47;;;;;;;15.27;13.88;;;;;;;8.07;38.44;102347.66;10457293;28;20056;-81
2022/03/19 13:18:56;;;;;;;14.23;13.02;;;;;;;8.05;39.17;102356.31;10446824;28;20049;-82
2022/03/19 13:23:59;;;;;;;16.58;14.20;;;;;;;8.08;38.12;102349.41;10439882;28;20046;-82
2022/03/19 13:29:09;;;;;;;13.77;12.55;;;;;;;8.00;38.95;102344.91;10438574;28;20054;-81
2022/03/19 13:34:19;;;;;;;16.48;14.57;;;;;;;8.05;38.77;102327.50;10438209;28;20115;-82
2022/03/19 13:39:27;;;;;;;23.17;19.48;;;;;;;8.38;37.87;102326.28;10438504;28;20038;-81
2022/03/19 13:44:41;;;;;;;17.45;15.68;;;;;;;8.19;37.37;102323.38;10445471;28;20048;-80
2022/03/19 13:49:57;;;;;;;16.83;15.10;;;;;;;8.34;36.97;102309.59;10441831;28;20045;-81
2022/03/19 13:55:02;;;;;;;18.57;15.97;;;;;;;8.56;36.60;102288.09;10440753;28;20046;-80
2022/03/19 14:00:07;;;;;;;17.33;15.50;;;;;;;8.62;36.46;102284.66;10446048;28;20069;-80
2022/03/19 14:05:20;;;;;;;18.13;14.13;;;;;;;8.55;33.79;102274.97;10443186;28;20057;-82
2022/03/19 14:10:28;;;;;;;15.20;13.60;;;;;;;8.79;33.96;102262.13;10435121;28;20384;-82
2022/03/19 14:15:37;;;;;;;12.02;10.88;;;;;;;8.77;31.28;102257.75;10435190;28;20037;-80
2022/03/19 14:20:38;;;;;;;12.45;11.20;;;;;;;8.70;31.85;102269.91;10436326;28;20041;-81
2022/03/19 14:25:40;;;;;;;14.63;11.48;;;;;;;8.69;30.70;102262.91;10440984;28;20041;-80
2022/03/19 14:30:43;;;;;;;12.82;11.68;;;;;;;8.69;31.33;102268.16;10446274;28;20549;-80
2022/03/19 14:36:03;;;;;;;13.35;12.05;;;;;;;8.79;30.41;102274.38;10445098;28;20073;-81
2022/03/19 14:41:08;;;;;;;13.07;11.77;;;;;;;8.71;31.07;102265.53;10434766;28;20041;-81
2022/03/19 14:46:10;;;;;;;14.07;12.68;;;;;;;8.79;32.02;102250.78;10449207;28;20045;-82
2022/03/19 14:51:14;;;;;;;14.52;12.00;;;;;;;8.76;30.19;102261.22;10439701;28;20037;-82
2022/03/19 14:56:16;;;;;;;13.32;12.18;;;;;;;8.53;29.78;102264.44;10436038;28;20095;-81
2022/03/19 15:01:18;;;;;;;12.70;11.50;;;;;;;8.42;30.59;102257.34;10431661;28;20052;-81
2022/03/19 15:06:20;;;;;;;12.07;10.88;;;;;;;8.40;29.09;102259.91;10431917;28;20124;-81
2022/03/19 15:11:27;;;;;;;11.07;10.10;;;;;;;8.48;29.58;102249.53;10431348;28;20067;-81
2022/03/19 15:16:29;;;;;;;12.30;11.20;;;;;;;8.46;30.24;102244.28;10430954;28;20042;-82
2022/03/19 15:21:32;;;;;;;11.57;10.38;;;;;;;8.38;28.47;102245.06;10432822;28;20041;-81
2022/03/19 15:26:34;;;;;;;12.85;11.68;;;;;;;8.31;28.99;102241.44;10447491;28;20042;-81
2022/03/19 15:31:35;;;;;;;13.45;12.20;;;;;;;8.26;29.19;102245.72;10430120;28;20049;-81
2022/03/19 15:36:38;;;;;;;13.60;12.23;;;;;;;8.36;29.92;102252.84;10432941;28;20045;-82
2022/03/19 15:41:40;;;;;;;10.73;9.65;;;;;;;8.23;28.16;102243.94;10430733;28;20057;-82
2022/03/19 15:46:42;;;;;;;13.77;11.93;;;;;;;8.15;29.46;102252.59;10430859;28;20041;-82
2022/03/19 15:51:44;;;;;;;13.60;11.70;;;;;;;8.15;29.41;102240.38;10431301;28;20038;-82
2022/03/19 15:56:45;;;;;;;11.80;10.73;;;;;;;8.13;29.52;102255.16;10446917;28;20045;-83
2022/03/19 16:01:48;;;;;;;13.38;10.18;;;;;;;8.07;29.75;102265.56;10433606;28;20041;-83
2022/03/19 16:06:50;;;;;;;12.75;11.55;;;;;;;8.07;29.45;102239.38;10428965;28;20050;-82
2022/03/19 16:11:52;;;;;;;12.88;11.75;;;;;;;7.90;30.39;102247.00;10430977;28;20045;-82
2022/03/19 16:16:53;;;;;;;14.85;10.40;;;;;;;7.97;29.83;102251.47;10430640;28;20492;-83
2022/03/19 16:21:56;;;;;;;13.05;11.88;;;;;;;7.93;30.01;102248.78;10430223;28;20049;-82
2022/03/19 16:26:57;;;;;;;11.40;10.40;;;;;;;7.89;30.11;102253.09;10430901;28;20407;-81
2022/03/19 16:31:59;;;;;;;11.73;10.70;;;;;;;7.79;30.05;102252.09;10436738;28;20045;-80
2022/03/19 16:37:01;;;;;;;12.02;10.82;;;;;;;7.72;30.52;102260.69;10450708;28;20049;-81
2022/03/19 16:42:03;;;;;;;13.30;11.82;;;;;;;7.59;31.20;102270.06;10449129;28;20041;-81
2022/03/19 16:47:04;;;;;;;12.38;11.18;;;;;;;7.57;30.38;102261.34;10457659;28;20046;-82
2022/03/19 16:52:07;;;;;;;12.23;10.60;;;;;;;7.42;30.70;102260.19;10441169;28;20049;-82
2022/03/19 16:57:09;;;;;;;12.68;11.48;;;;;;;7.46;31.06;102262.00;10439651;28;20049;-79
2022/03/19 17:02:13;;;;;;;11.98;10.77;;;;;;;7.47;30.81;102269.88;10432709;28;20041;-82
2022/03/19 17:07:14;;;;;;;12.43;11.23;;;;;;;7.21;31.88;102269.41;10429524;28;20041;-82
2022/03/19 17:12:16;;;;;;;11.00;9.90;;;;;;;7.05;31.92;102270.00;10427467;28;20478;-82
2022/03/19 17:17:17;;;;;;;11.25;10.20;;;;;;;7.15;31.91;102277.16;10428313;28;20067;-81
2022/03/19 17:22:19;;;;;;;12.32;11.13;;;;;;;7.11;32.46;102274.47;10428573;28;20046;-81
2022/03/19 17:27:21;;;;;;;15.70;11.05;;;;;;;7.03;32.34;102269.97;10444760;28;20093;-80
2022/03/19 17:32:22;;;;;;;11.10;10.00;;;;;;;6.94;32.51;102274.16;10455827;28;20041;-82
2022/03/19 17:37:25;;;;;;;11.48;10.30;;;;;;;6.88;32.07;102274.91;10451308;28;20061;-82
2022/03/19 17:42:26;;;;;;;11.25;10.25;;;;;;;6.68;32.37;102276.25;10431300;28;20037;-81
2022/03/19 17:47:28;;;;;;;11.02;10.00;;;;;;;6.79;31.86;102282.59;10457349;28;20049;-80
2022/03/19 17:52:32;;;;;;;10.85;9.95;;;;;;;6.74;32.24;102289.47;10442758;28;20048;-82
2022/03/19 17:57:34;;;;;;;11.65;10.55;;;;;;;6.66;32.47;102288.41;10434189;28;20121;-82
2022/03/19 18:02:36;;;;;;;11.48;10.38;;;;;;;6.62;32.28;102299.66;10434637;28;20053;-81
2022/03/19 18:07:42;;;;;;;18.30;11.60;;;;;;;6.49;32.77;102298.50;10435287;28;20105;-82
2022/03/19 18:12:46;;;;;;;11.15;10.00;;;;;;;6.51;32.93;102297.72;10432984;28;20567;-82
2022/03/19 18:17:47;;;;;;;12.80;11.70;;;;;;;6.42;33.25;102297.53;10433481;28;20049;-82
2022/03/19 18:22:50;;;;;;;13.02;11.00;;;;;;;6.41;32.34;102303.56;10433073;28;20040;-83
2022/03/19 18:27:51;;;;;;;13.55;12.32;;;;;;;6.35;32.73;102302.56;10431344;28;20083;-82
2022/03/19 18:32:53;;;;;;;17.88;11.70;;;;;;;6.41;32.79;102298.34;10432407;28;20045;-83
2022/03/19 18:37:55;;;;;;;12.95;11.85;;;;;;;6.41;33.35;102305.31;10432076;28;20111;-81
2022/03/19 18:42:56;;;;;;;13.75;12.55;;;;;;;6.05;33.71;102312.34;10431793;28;20052;-82
2022/03/19 18:47:58;;;;;;;12.57;11.32;;;;;;;6.21;33.67;102307.50;10433386;28;20045;-81
2022/03/19 18:53:00;;;;;;;15.95;12.60;;;;;;;6.10;33.51;102319.41;10431924;28;20037;-83
2022/03/19 18:58:16;;;;;;;16.58;12.38;;;;;;;6.09;33.74;102313.31;10432882;28;20060;-83
2022/03/19 19:03:18;;;;;;;14.32;12.88;;;;;;;5.98;34.28;102315.69;10444635;28;20049;-82
2022/03/19 19:08:20;;;;;;;15.15;13.82;;;;;;;5.90;34.63;102319.81;10440030;28;20049;-81
2022/03/19 19:13:22;;;;;;;16.20;14.63;;;;;;;5.95;35.04;102319.94;10449152;28;20038;-82
2022/03/19 19:18:24;;;;;;;15.35;13.90;;;;;;;5.90;34.75;102314.59;10434606;28;20105;-81
2022/03/19 19:23:30;;;;;;;21.27;14.13;;;;;;;5.82;34.93;102318.72;10435913;28;20100;-81
2022/03/19 19:28:31;;;;;;;15.45;13.85;;;;;;;5.85;35.03;102313.59;10434652;28;20088;-82
2022/03/19 19:33:33;;;;;;;15.52;14.13;;;;;;;5.80;35.01;102312.59;10432633;28;20049;-81
2022/03/19 19:38:38;;;;;;;13.18;11.95;;;;;;;5.80;34.91;102302.16;10430276;28;20045;-82
2022/03/19 19:43:39;;;;;;;19.30;13.60;;;;;;;5.75;35.11;102299.41;10427928;28;20041;-83
2022/03/19 19:48:41;;;;;;;17.10;14.00;;;;;;;5.75;35.00;102296.81;10431074;28;20053;-82
2022/03/19 19:53:43;;;;;;;19.27;13.85;;;;;;;5.70;35.15;102295.81;10430826;28;20095;-84
2022/03/19 19:58:44;;;;;;;15.02;13.43;;;;;;;5.73;35.13;102289.81;10433032;28;20095;-81
2022/03/19 20:03:46;;;;;;;14.80;13.43;;;;;;;5.68;35.18;102278.38;10431824;28;20056;-84
2022/03/19 20:08:48;;;;;;;14.60;13.23;;;;;;;5.68;35.27;102278.38;10433972;28;20064;-84
2022/03/19 20:13:49;;;;;;;18.38;14.05;;;;;;;5.67;35.99;102281.84;10463162;28;20112;-82
2022/03/19 20:18:53;;;;;;;16.10;13.82;;;;;;;5.54;35.82;102278.03;10449741;28;20054;-82
2022/03/19 20:23:54;;;;;;;15.77;13.93;;;;;;;5.46;35.65;102272.63;10450950;28;20130;-81
2022/03/19 20:28:56;;;;;;;14.63;13.23;;;;;;;5.49;35.95;102270.09;10449606;28;20113;-83
2022/03/19 20:33:58;;;;;;;15.27;13.77;;;;;;;5.26;36.47;102266.00;10440766;28;20072;-82
2022/03/19 20:38:59;;;;;;;15.57;14.15;;;;;;;5.42;36.00;102270.78;10434755;28;20076;-83
2022/03/19 20:44:01;;;;;;;13.85;12.48;;;;;;;5.40;36.15;102264.66;10432644;28;20045;-82
2022/03/19 20:49:03;;;;;;;17.75;14.02;;;;;;;5.40;36.22;102251.63;10449059;28;20046;-84
2022/03/19 20:54:05;;;;;;;15.38;13.88;;;;;;;5.29;36.96;102242.63;10447129;28;20050;-84
2022/03/19 20:59:07;;;;;;;15.73;14.10;;;;;;;5.18;36.82;102244.97;10434781;28;20147;-83
2022/03/19 21:04:09;;;;;;;17.02;15.25;;;;;;;5.12;36.99;102238.72;10452754;28;20030;-84
2022/03/19 21:09:10;;;;;;;19.85;15.80;;;;;;;5.02;37.52;102238.47;10461442;28;20029;-83
2022/03/19 21:14:17;;;;;;;17.08;15.35;;;;;;;4.93;37.79;102237.34;10447409;28;20087;-84
2022/03/19 21:19:20;;;;;;;13.77;11.30;;;;;;;4.74;38.13;102243.81;10438419;28;20072;-84
2022/03/19 21:24:21;;;;;;;21.17;16.25;;;;;;;4.78;38.49;102237.81;10442287;28;20049;-84
2022/03/19 21:29:23;;;;;;;24.23;16.77;;;;;;;4.63;38.42;102233.06;10442474;28;20487;-81
2022/03/19 21:34:24;;;;;;;16.02;14.52;;;;;;;4.51;39.05;102233.59;10439925;28;20045;-82
2022/03/19 21:44:46;;;;;;;18.17;16.40;;;;;;;4.53;39.42;102231.06;10437613;28;20076;-83
2022/03/19 21:49:48;;;;;;;18.90;17.20;;;;;;;4.28;39.79;102235.56;10436963;28;20068;-82
2022/03/19 21:54:50;;;;;;;18.33;16.58;;;;;;;4.54;39.49;102232.81;10437797;28;20050;-82
2022/03/19 21:59:52;;;;;;;18.05;16.25;;;;;;;4.22;39.47;102237.09;10436526;28;20407;-82
2022/03/19 22:04:54;;;;;;;16.58;14.95;;;;;;;4.10;40.54;102227.22;10435674;28;20407;-81
2022/03/19 22:09:55;;;;;;;17.67;15.98;;;;;;;3.80;40.92;102240.16;10434415;28;20037;-82
2022/03/19 22:14:57;;;;;;;17.52;15.77;;;;;;;3.59;41.24;102242.13;10434966;28;20053;-81
2022/03/19 22:20:10;;;;;;;17.88;16.00;;;;;;;3.67;42.89;102244.09;10444823;28;20037;-82
2022/03/19 22:25:15;;;;;;;18.33;16.13;;;;;;;3.69;42.49;102244.16;10437898;28;20096;-81
2022/03/19 22:30:17;;;;;;;16.30;14.85;;;;;;;3.12;43.49;102242.28;10433967;28;20111;-83
2022/03/19 22:35:19;;;;;;;18.23;16.08;;;;;;;2.88;43.37;102242.34;10434620;28;20128;-84
2022/03/19 22:40:21;;;;;;;23.23;16.45;;;;;;;2.65;44.82;102238.03;10435204;28;20038;-83
2022/03/19 22:45:23;;;;;;;21.92;17.00;;;;;;;2.99;46.69;102243.59;10435399;28;20037;-82
2022/03/19 22:50:25;;;;;;;19.02;17.02;;;;;;;2.85;46.16;102236.16;10440992;28;20056;-83
2022/03/19 22:55:27;;;;;;;20.20;17.17;;;;;;;2.66;46.72;102232.03;10436774;28;20057;-81
2022/03/19 23:00:37;;;;;;;19.55;15.98;;;;;;;2.80;45.04;102242.91;10471446;22;20060;-70
2022/03/19 23:05:39;;;;;;;21.70;16.67;;;;;;;2.42;47.16;102242.41;10447519;28;20045;-68
2022/03/19 23:11:25;;;;;;;18.15;16.25;;;;;;;1.90;48.68;102250.78;10463166;28;20480;-68